Time;durP1;ratioP1;P1;durP2;ratioP2;P2;SDS_P1;SDS_P2;PMS_P1;PMS_P2;Temp;Humidity;BMP_temperature;BMP_pressure;BME280_temperature;BME280_humidity;BME280_pressure;Samples;Min_cycle;Max_cycle;Signal;HPM_P1;HPM_P2
2021/06/25 00:00:32;;;;;;;19.43;17.33;;;18.00;99.90;;;;;;5048949;28;20459;-42
2021/06/25 00:02:58;;;;;;;20.10;17.93;;;18.00;99.90;;;;;;5048193;28;20437;-41
2021/06/25 00:05:23;;;;;;;19.00;17.10;;;18.00;99.90;;;;;;5034784;28;20965;-46
2021/06/25 00:07:49;;;;;;;18.47;16.60;;;17.90;99.90;;;;;;5048091;28;20185;-41
2021/06/25 00:10:15;;;;;;;20.27;18.10;;;17.90;99.90;;;;;;5048831;28;20218;-43
2021/06/25 00:12:40;;;;;;;18.80;16.80;;;17.90;99.90;;;;;;5049185;28;20194;-46
2021/06/25 00:15:08;;;;;;;19.67;17.57;;;17.90;99.90;;;;;;5049208;28;20194;-45
2021/06/25 00:17:34;;;;;;;20.60;18.20;;;17.90;99.90;;;;;;5048073;28;20185;-44
2021/06/25 00:19:59;;;;;;;18.40;16.60;;;17.80;99.90;;;;;;5036575;28;20433;-43
2021/06/25 00:22:26;;;;;;;22.50;18.90;;;17.80;99.90;;;;;;5049164;28;20560;-43
2021/06/25 00:24:52;;;;;;;23.20;19.87;;;17.80;99.90;;;;;;5048750;28;20186;-42
2021/06/25 00:27:18;;;;;;;20.87;18.70;;;17.80;99.90;;;;;;5049266;28;20431;-41
2021/06/25 00:29:44;;;;;;;26.43;19.80;;;17.80;99.90;;;;;;5048142;28;20196;-44
2021/06/25 00:32:09;;;;;;;21.13;18.97;;;17.70;99.90;;;;;;5048270;28;20436;-45
2021/06/25 00:34:35;;;;;;;23.37;20.90;;;17.70;99.90;;;;;;5041692;28;20197;-45
2021/06/25 00:37:01;;;;;;;21.97;19.67;;;17.60;99.90;;;;;;5044048;28;20208;-44
2021/06/25 00:39:27;;;;;;;22.33;19.97;;;17.60;99.90;;;;;;5048439;28;20524;-41
2021/06/25 00:41:53;;;;;;;22.27;20.07;;;17.60;99.90;;;;;;5047351;28;20190;-41
2021/06/25 00:44:21;;;;;;;21.53;19.33;;;17.50;99.90;;;;;;5048961;28;20197;-44
2021/06/25 00:46:47;;;;;;;23.03;20.50;;;17.50;99.90;;;;;;5048780;28;20454;-41
2021/06/25 00:49:14;;;;;;;22.13;19.83;;;17.40;99.90;;;;;;5044402;28;20993;-41
2021/06/25 00:51:40;;;;;;;22.10;19.77;;;17.40;99.90;;;;;;5042827;28;20807;-43
2021/06/25 00:54:08;;;;;;;22.37;19.37;;;17.40;99.90;;;;;;5047554;28;20416;-43
2021/06/25 00:56:33;;;;;;;22.43;19.47;;;17.40;99.90;;;;;;5048638;28;20485;-45
2021/06/25 00:59:00;;;;;;;24.13;21.63;;;17.40;99.90;;;;;;5047848;28;20829;-44
2021/06/25 01:01:26;;;;;;;25.53;21.67;;;17.40;99.90;;;;;;5047550;28;20284;-44
2021/06/25 01:03:51;;;;;;;21.57;19.40;;;17.40;99.90;;;;;;5047551;28;20526;-43
2021/06/25 01:06:18;;;;;;;26.90;21.83;;;17.50;99.90;;;;;;5037149;28;20193;-48
2021/06/25 01:08:44;;;;;;;23.37;20.73;;;17.40;99.90;;;;;;5045962;28;20668;-42
2021/06/25 01:11:10;;;;;;;23.33;20.93;;;17.30;99.90;;;;;;5048132;28;20519;-43
2021/06/25 01:13:38;;;;;;;23.03;20.50;;;17.40;99.90;;;;;;5048356;28;20513;-44
2021/06/25 01:16:05;;;;;;;22.60;19.43;;;17.40;99.90;;;;;;5048026;28;20425;-43
2021/06/25 01:18:31;;;;;;;22.80;20.50;;;17.40;99.90;;;;;;5048314;28;20427;-46
2021/06/25 01:20:59;;;;;;;23.07;19.70;;;17.40;99.90;;;;;;5037273;28;20669;-44
2021/06/25 01:23:24;;;;;;;21.17;19.03;;;17.30;99.90;;;;;;5047365;28;20201;-45
2021/06/25 01:25:50;;;;;;;22.93;20.53;;;17.30;99.90;;;;;;5048277;28;20922;-46
2021/06/25 01:28:16;;;;;;;23.17;20.63;;;17.20;99.90;;;;;;5046552;28;20518;-41
2021/06/25 01:30:45;;;;;;;22.80;20.40;;;17.10;99.90;;;;;;5046690;28;20213;-41
2021/06/25 01:33:16;;;;;;;21.43;19.17;;;17.10;99.90;;;;;;5047772;28;20189;-46
2021/06/25 01:35:42;;;;;;;22.30;20.00;;;17.00;99.90;;;;;;5042150;28;20432;-44
2021/06/25 01:38:10;;;;;;;22.40;19.43;;;17.00;99.90;;;;;;5046152;28;20462;-45
2021/06/25 01:40:37;;;;;;;21.97;19.40;;;16.80;99.90;;;;;;5047240;28;20217;-43
2021/06/25 01:43:04;;;;;;;23.40;20.90;;;16.80;99.90;;;;;;5047648;28;20463;-42
2021/06/25 01:45:33;;;;;;;24.23;21.10;;;16.80;99.90;;;;;;5047873;28;20416;-46
2021/06/25 01:48:00;;;;;;;24.10;20.60;;;16.80;99.90;;;;;;5047426;28;20810;-43
2021/06/25 01:50:36;;;;;;;22.37;20.00;;;16.80;99.90;;;;;;5033923;28;20618;-45
2021/06/25 01:53:04;;;;;;;25.10;21.00;;;16.70;99.90;;;;;;5045937;28;20419;-43
2021/06/25 01:55:39;;;;;;;22.43;20.17;;;16.60;99.90;;;;;;5046189;28;20417;-42
2021/06/25 01:58:16;;;;;;;22.60;20.30;;;16.70;99.90;;;;;;5047337;28;20439;-42
2021/06/25 02:01:02;;;;;;;25.63;19.20;;;16.60;99.90;;;;;;5047016;28;20502;-45
2021/06/25 02:03:27;;;;;;;21.73;19.53;;;16.60;99.90;;;;;;5047542;28;20420;-43
2021/06/25 02:05:53;;;;;;;22.83;20.33;;;16.50;99.90;;;;;;5037906;28;20501;-41
2021/06/25 02:08:19;;;;;;;19.77;17.83;;;16.40;99.90;;;;;;5046820;28;20206;-45
2021/06/25 02:10:44;;;;;;;22.07;19.70;;;16.30;99.90;;;;;;5046495;28;20217;-43
2021/06/25 02:13:10;;;;;;;22.33;20.07;;;16.20;99.90;;;;;;5047115;28;20194;-49
2021/06/25 02:15:36;;;;;;;24.47;20.53;;;16.10;99.90;;;;;;5046928;28;20575;-41
2021/06/25 02:18:02;;;;;;;22.57;18.33;;;16.10;99.90;;;;;;5047232;28;20581;-42
2021/06/25 02:20:28;;;;;;;23.53;19.03;;;16.00;99.90;;;;;;5039755;28;20201;-42
2021/06/25 02:22:53;;;;;;;24.83;19.80;;;16.10;99.90;;;;;;5039517;28;20764;-43
2021/06/25 02:25:19;;;;;;;21.00;18.57;;;16.00;99.90;;;;;;5046561;28;20193;-47
2021/06/25 02:27:45;;;;;;;22.20;19.90;;;16.00;99.90;;;;;;5047367;28;20228;-41
2021/06/25 02:30:16;;;;;;;26.50;20.70;;;16.00;99.90;;;;;;5045850;28;20792;-43
2021/06/25 02:32:43;;;;;;;22.07;19.67;;;15.80;99.90;;;;;;5046043;28;20351;-45
2021/06/25 02:35:10;;;;;;;21.50;19.20;;;15.80;99.90;;;;;;5040850;28;20433;-44
2021/06/25 02:37:35;;;;;;;23.30;17.70;;;15.60;99.90;;;;;;5042139;28;20461;-45
2021/06/25 02:40:01;;;;;;;22.90;19.83;;;15.60;99.90;;;;;;5046210;28;20447;-43
2021/06/25 02:42:27;;;;;;;20.47;18.37;;;15.60;99.90;;;;;;5046502;28;20186;-43
2021/06/25 02:44:52;;;;;;;24.70;19.47;;;15.60;99.90;;;;;;5046225;28;20429;-44
2021/06/25 02:47:18;;;;;;;21.13;18.93;;;15.60;99.90;;;;;;5046772;28;20275;-42
2021/06/25 02:49:44;;;;;;;21.83;17.80;;;15.60;99.90;;;;;;5045113;28;20397;-42
2021/06/25 02:52:09;;;;;;;20.57;17.83;;;15.60;99.90;;;;;;5037835;28;20628;-45
2021/06/25 02:54:36;;;;;;;18.53;16.30;;;15.60;99.90;;;;;;5046415;28;20198;-43
2021/06/25 02:57:02;;;;;;;17.10;15.27;;;15.60;99.90;;;;;;5045965;28;20198;-45
2021/06/25 02:59:28;;;;;;;17.60;14.73;;;15.60;99.90;;;;;;5045779;28;20447;-41
2021/06/25 03:01:54;;;;;;;18.37;16.17;;;15.60;99.90;;;;;;5045201;28;20775;-46
2021/06/25 03:04:20;;;;;;;16.30;14.60;;;15.60;99.90;;;;;;5046442;28;20186;-45
2021/06/25 03:06:46;;;;;;;17.60;14.80;;;15.60;99.90;;;;;;5033874;28;20946;-41
2021/06/25 03:09:12;;;;;;;17.03;15.20;;;15.50;99.90;;;;;;5045266;28;20444;-45
2021/06/25 03:11:38;;;;;;;17.03;15.30;;;15.40;99.90;;;;;;5045827;28;20471;-43
2021/06/25 03:14:04;;;;;;;15.73;14.10;;;15.30;99.90;;;;;;5046250;28;20911;-43
2021/06/25 03:16:30;;;;;;;16.50;14.07;;;15.20;99.90;;;;;;5046103;28;20668;-45
2021/06/25 03:18:56;;;;;;;16.77;14.97;;;15.10;99.90;;;;;;5045148;28;20471;-44
2021/06/25 03:21:22;;;;;;;17.50;15.03;;;15.10;99.90;;;;;;5035946;28;20201;-44
2021/06/25 03:23:48;;;;;;;18.07;16.17;;;15.00;99.90;;;;;;5045983;28;20682;-45
2021/06/25 03:26:13;;;;;;;18.20;16.27;;;15.00;99.90;;;;;;5045676;28;20204;-42
2021/06/25 03:28:39;;;;;;;17.77;15.87;;;14.90;99.90;;;;;;5045203;28;20609;-41
2021/06/25 03:31:05;;;;;;;18.03;16.20;;;15.00;99.90;;;;;;5045100;28;20289;-44
2021/06/25 03:33:31;;;;;;;17.23;15.27;;;14.90;99.90;;;;;;5045745;28;20420;-42
2021/06/25 03:35:57;;;;;;;18.90;15.63;;;14.90;99.90;;;;;;5037452;28;20444;-44
2021/06/25 03:38:22;;;;;;;19.50;15.90;;;14.80;99.90;;;;;;5043487;28;20196;-43
2021/06/25 03:40:48;;;;;;;17.23;15.33;;;14.80;99.90;;;;;;5044751;28;20201;-44
2021/06/25 03:43:14;;;;;;;18.00;16.00;;;14.80;99.90;;;;;;5045617;28;20190;-43
2021/06/25 03:45:40;;;;;;;20.80;15.57;;;14.80;99.90;;;;;;5046018;28;20539;-42
2021/06/25 03:48:06;;;;;;;18.07;16.10;;;14.70;99.90;;;;;;5045823;28;20194;-42
2021/06/25 03:50:32;;;;;;;18.50;15.40;;;14.70;99.90;;;;;;5042033;28;20472;-44
2021/06/25 03:52:58;;;;;;;18.47;16.37;;;14.70;99.90;;;;;;5035068;28;20524;-42
2021/06/25 03:55:23;;;;;;;19.83;17.73;;;14.60;99.90;;;;;;5043171;28;20499;-44
2021/06/25 03:57:49;;;;;;;22.03;18.67;;;14.70;99.90;;;;;;5045618;28;20193;-42
2021/06/25 04:00:17;;;;;;;20.60;17.73;;;14.80;99.90;;;;;;5043805;28;20704;-45
2021/06/25 04:02:44;;;;;;;24.37;18.73;;;14.80;99.90;;;;;;5045772;28;20432;-43
2021/06/25 04:05:10;;;;;;;21.73;19.47;;;14.90;99.90;;;;;;5045539;28;20432;-45
2021/06/25 04:07:37;;;;;;;22.43;19.50;;;14.90;99.90;;;;;;5029664;28;20551;-45
2021/06/25 04:10:05;;;;;;;24.90;19.67;;;15.00;99.90;;;;;;5023646;28;20484;-46
2021/06/25 04:12:31;;;;;;;21.97;18.53;;;15.10;99.90;;;;;;5043942;28;20820;-41
2021/06/25 04:14:57;;;;;;;27.10;19.40;;;15.10;99.90;;;;;;5045466;28;20582;-43
2021/06/25 04:17:23;;;;;;;23.87;19.83;;;15.20;99.90;;;;;;5045539;28;21111;-44
2021/06/25 04:19:48;;;;;;;21.93;19.47;;;15.20;99.90;;;;;;5043853;28;20933;-42
2021/06/25 04:22:14;;;;;;;27.13;20.33;;;15.30;99.90;;;;;;5034774;28;20284;-44
2021/06/25 04:24:40;;;;;;;23.90;20.63;;;15.40;99.90;;;;;;5043034;28;20186;-42
2021/06/25 04:27:06;;;;;;;25.67;20.10;;;15.40;99.90;;;;;;5045361;28;20193;-44
2021/06/25 04:29:33;;;;;;;23.03;20.00;;;15.40;99.90;;;;;;5045795;28;20717;-41
2021/06/25 04:31:59;;;;;;;21.43;18.67;;;15.40;99.90;;;;;;5046971;28;20866;-45
2021/06/25 04:34:25;;;;;;;25.20;20.67;;;15.40;99.90;;;;;;5048935;28;20423;-40
2021/06/25 04:36:51;;;;;;;24.70;19.90;;;15.60;99.90;;;;;;5039252;28;20439;-45
2021/06/25 04:39:16;;;;;;;21.40;17.63;;;15.60;99.90;;;;;;5043475;28;20200;-44
2021/06/25 04:41:42;;;;;;;21.90;17.60;;;15.70;99.90;;;;;;5048658;28;20684;-41
2021/06/25 04:44:08;;;;;;;20.10;17.57;;;15.70;99.90;;;;;;5048957;28;20198;-40
2021/06/25 04:46:34;;;;;;;24.23;18.23;;;15.80;99.90;;;;;;5048898;28;20200;-44
2021/06/25 04:49:00;;;;;;;26.93;18.60;;;15.80;99.90;;;;;;5048138;28;20435;-40
2021/06/25 04:51:26;;;;;;;21.63;17.40;;;15.90;99.90;;;;;;5043319;28;20476;-43
2021/06/25 04:53:52;;;;;;;22.20;17.20;;;15.80;99.90;;;;;;5042405;28;20424;-42
2021/06/25 04:56:18;;;;;;;23.77;19.53;;;15.90;99.90;;;;;;5048379;28;20447;-41
2021/06/25 04:58:44;;;;;;;22.87;17.97;;;15.90;99.90;;;;;;5048128;28;20265;-43
2021/06/25 05:01:10;;;;;;;20.73;16.53;;;15.90;99.90;;;;;;5046960;28;20535;-43
2021/06/25 05:03:38;;;;;;;20.97;18.20;;;16.00;99.90;;;;;;5048765;28;20420;-41
2021/06/25 05:06:05;;;;;;;19.50;17.43;;;16.00;99.90;;;;;;5044831;28;20214;-41
2021/06/25 05:08:31;;;;;;;20.37;18.10;;;16.00;99.90;;;;;;5039867;28;20942;-42
2021/06/25 05:10:56;;;;;;;19.80;17.43;;;16.20;99.90;;;;;;5047047;28;20501;-41
2021/06/25 05:13:22;;;;;;;20.17;17.57;;;16.20;99.90;;;;;;5048145;28;20424;-42
2021/06/25 05:15:48;;;;;;;19.63;17.10;;;16.30;99.90;;;;;;5047927;28;20177;-47
2021/06/25 05:18:15;;;;;;;21.80;18.80;;;16.30;99.90;;;;;;5048058;28;20185;-41
2021/06/25 05:20:42;;;;;;;21.27;18.57;;;16.30;99.90;;;;;;5045900;28;20208;-47
2021/06/25 05:23:09;;;;;;;25.07;18.30;;;16.30;99.90;;;;;;5040091;28;20578;-42
2021/06/25 05:25:35;;;;;;;21.60;18.50;;;16.40;99.90;;;;;;5047986;28;20416;-43
2021/06/25 05:28:00;;;;;;;26.20;19.00;;;16.40;99.90;;;;;;5048091;28;20432;-46
2021/06/25 05:30:26;;;;;;;21.50;18.50;;;16.50;99.90;;;;;;5047304;28;20205;-42
2021/06/25 05:32:52;;;;;;;21.53;18.47;;;16.70;99.90;;;;;;5047050;28;20205;-42
2021/06/25 05:35:17;;;;;;;23.50;18.90;;;16.70;99.90;;;;;;5046623;28;20531;-46
2021/06/25 05:37:43;;;;;;;23.70;18.87;;;16.80;99.90;;;;;;5037238;28;20214;-42
2021/06/25 05:40:10;;;;;;;24.30;18.60;;;16.80;99.90;;;;;;5046785;28;20225;-42
2021/06/25 05:42:35;;;;;;;28.03;19.47;;;16.80;99.90;;;;;;5047800;28;20189;-44
2021/06/25 05:45:01;;;;;;;23.13;19.10;;;16.90;99.90;;;;;;5047906;28;20427;-43
2021/06/25 05:47:27;;;;;;;21.37;18.50;;;16.90;99.90;;;;;;5046353;28;20269;-42
2021/06/25 05:49:52;;;;;;;22.60;18.23;;;16.90;99.90;;;;;;5047146;28;20509;-44
2021/06/25 05:52:18;;;;;;;21.63;17.03;;;17.00;99.90;;;;;;5035565;28;20218;-41
2021/06/25 05:54:44;;;;;;;20.50;16.33;;;17.20;99.90;;;;;;5026686;28;20241;-43
2021/06/25 05:57:10;;;;;;;21.43;16.80;;;17.30;99.90;;;;;;5046688;28;20199;-42
2021/06/25 05:59:35;;;;;;;20.70;16.93;;;17.40;99.90;;;;;;5049668;28;20186;-45
2021/06/25 06:02:01;;;;;;;20.77;16.20;;;17.40;99.90;;;;;;5047155;28;20344;-46
2021/06/25 06:04:27;;;;;;;21.70;18.13;;;17.50;99.90;;;;;;5049171;28;20546;-47
2021/06/25 06:06:52;;;;;;;21.67;16.33;;;17.40;99.90;;;;;;5045585;28;20191;-47
2021/06/25 06:09:18;;;;;;;26.90;17.67;;;17.50;99.90;;;;;;5047867;28;20213;-44
2021/06/25 06:11:44;;;;;;;23.30;19.20;;;17.60;99.90;;;;;;5048351;28;20227;-42
2021/06/25 06:14:09;;;;;;;22.17;18.73;;;17.80;99.90;;;;;;5043276;28;20209;-42
2021/06/25 06:16:35;;;;;;;25.83;21.13;;;17.90;99.90;;;;;;5042705;28;20411;-43
2021/06/25 06:19:03;;;;;;;27.30;21.80;;;18.10;99.90;;;;;;5046300;28;20206;-40
2021/06/25 06:31:10;;;;;;;24.47;20.43;;;18.10;99.90;;;;;;5045279;28;20251;-45
2021/06/25 06:32:34;;;;;;;18.73;12.80;;;18.60;99.90;;;;;;5044973;28;20454;-42
2021/06/25 06:35:00;;;;;;;17.87;13.47;;;18.80;99.90;;;;;;5028677;28;20443;-42
2021/06/25 06:37:25;;;;;;;13.20;11.50;;;19.00;99.90;;;;;;5040905;28;20730;-42
2021/06/25 06:39:52;;;;;;;13.70;10.57;;;19.10;99.50;;;;;;5042853;28;20436;-43
2021/06/25 06:42:18;;;;;;;14.40;10.53;;;19.20;98.30;;;;;;5045214;28;20578;-41
2021/06/25 06:44:43;;;;;;;13.00;11.60;;;19.20;97.70;;;;;;5046355;28;20444;-44
2021/06/25 06:47:09;;;;;;;12.57;10.57;;;19.30;98.00;;;;;;5046802;28;20193;-42
2021/06/25 06:49:35;;;;;;;13.10;10.00;;;19.30;98.30;;;;;;5051453;28;20671;-43
2021/06/25 06:52:05;;;;;;;8.87;8.07;;;19.30;98.20;;;;;;5058124;28;20225;-44
2021/06/25 06:54:30;;;;;;;12.33;9.67;;;19.40;97.60;;;;;;5040989;28;20219;-42
2021/06/25 06:56:56;;;;;;;11.40;9.97;;;19.50;96.20;;;;;;5047673;28;20820;-43
2021/06/25 06:59:22;;;;;;;10.80;8.30;;;19.50;95.60;;;;;;5046187;28;20555;-43
2021/06/25 07:01:47;;;;;;;13.60;10.33;;;19.40;95.80;;;;;;5046462;28;20634;-43
2021/06/25 07:04:13;;;;;;;12.83;9.90;;;19.40;96.40;;;;;;5046377;28;20197;-41
2021/06/25 07:06:39;;;;;;;15.87;10.77;;;19.40;97.10;;;;;;5045129;28;20224;-46
2021/06/25 07:09:04;;;;;;;12.30;11.00;;;19.50;97.40;;;;;;5041307;28;20197;-40
2021/06/25 07:11:30;;;;;;;12.47;11.00;;;19.60;97.80;;;;;;5044816;28;20224;-45
2021/06/25 07:13:57;;;;;;;14.30;11.90;;;19.80;97.90;;;;;;5046465;28;20283;-43
2021/06/25 07:16:22;;;;;;;11.60;10.40;;;20.00;97.20;;;;;;5046136;28;20847;-41
2021/06/25 07:18:49;;;;;;;13.17;11.77;;;20.00;96.80;;;;;;5062623;28;20873;-43
2021/06/25 07:21:17;;;;;;;13.90;12.20;;;20.00;96.00;;;;;;5064951;28;20276;-41
2021/06/25 07:23:43;;;;;;;14.23;11.53;;;19.90;96.40;;;;;;5037981;28;20751;-42
2021/06/25 07:26:08;;;;;;;11.17;9.97;;;20.00;97.00;;;;;;5046241;28;20495;-41
2021/06/25 07:28:35;;;;;;;16.73;10.90;;;20.10;97.40;;;;;;5045392;28;20567;-41
2021/06/25 07:31:01;;;;;;;11.47;10.37;;;20.20;96.90;;;;;;5044351;28;20299;-41
2021/06/25 07:33:42;;;;;;;13.00;10.20;;;20.30;97.10;;;;;;5042071;28;20473;-44
2021/06/25 07:36:08;;;;;;;10.30;9.30;;;20.40;95.80;;;;;;5045527;28;20174;-41
2021/06/25 07:38:34;;;;;;;10.97;9.67;;;20.40;95.90;;;;;;5040058;28;20452;-42
2021/06/25 07:40:59;;;;;;;12.70;9.17;;;20.40;96.30;;;;;;5040454;28;20424;-42
2021/06/25 07:43:25;;;;;;;11.93;10.63;;;20.40;96.60;;;;;;5045557;28;20186;-43
2021/06/25 07:45:51;;;;;;;14.37;11.17;;;20.40;96.90;;;;;;5046251;28;20589;-43
2021/06/25 07:48:16;;;;;;;12.20;10.90;;;20.40;96.70;;;;;;5045926;28;20197;-43
2021/06/25 07:50:42;;;;;;;12.23;10.97;;;20.30;96.90;;;;;;5045988;28;20237;-41
2021/06/25 07:53:10;;;;;;;13.80;12.40;;;20.40;97.20;;;;;;5044322;28;20639;-47
2021/06/25 07:55:42;;;;;;;17.10;12.07;;;20.50;97.10;;;;;;5041962;28;20420;-44
2021/06/25 07:58:11;;;;;;;13.20;11.80;;;20.50;97.10;;;;;;5044793;28;20427;-41
2021/06/25 08:00:37;;;;;;;12.43;11.17;;;20.60;97.50;;;;;;5046406;28;20428;-42
2021/06/25 08:03:03;;;;;;;13.80;11.40;;;20.50;97.40;;;;;;5045974;28;20453;-42
2021/06/25 08:05:29;;;;;;;14.23;12.73;;;20.50;98.30;;;;;;5049657;28;20208;-43
2021/06/25 08:07:54;;;;;;;14.60;13.10;;;20.50;97.50;;;;;;5049395;28;20424;-41
2021/06/25 08:10:20;;;;;;;13.07;11.77;;;20.50;97.90;;;;;;5040529;28;20257;-44
2021/06/25 08:12:46;;;;;;;13.50;11.30;;;20.50;98.00;;;;;;5048209;28;20231;-41
2021/06/25 08:15:12;;;;;;;14.90;11.50;;;20.50;97.60;;;;;;5047907;28;20265;-42
2021/06/25 08:17:38;;;;;;;15.37;12.07;;;20.50;98.10;;;;;;5049846;28;20186;-44
2021/06/25 08:20:05;;;;;;;11.27;10.10;;;20.50;98.60;;;;;;5049226;28;20516;-44
2021/06/25 08:22:31;;;;;;;15.27;13.33;;;20.50;98.70;;;;;;5049878;28;20186;-43
2021/06/25 08:24:56;;;;;;;14.50;12.77;;;20.50;98.70;;;;;;5037341;28;20475;-44
2021/06/25 08:27:22;;;;;;;13.87;12.57;;;20.50;98.40;;;;;;5049363;28;20211;-43
2021/06/25 08:29:48;;;;;;;14.50;13.10;;;20.50;98.40;;;;;;5049597;28;20354;-44
2021/06/25 08:32:14;;;;;;;15.60;13.17;;;20.50;98.90;;;;;;5049062;28;20343;-41
2021/06/25 08:34:39;;;;;;;13.83;12.30;;;20.60;98.40;;;;;;5047792;28;20195;-45
2021/06/25 08:37:05;;;;;;;14.53;12.37;;;20.50;98.60;;;;;;5049146;28;20251;-41
2021/06/25 08:39:31;;;;;;;15.63;13.90;;;20.60;98.80;;;;;;5038393;28;20201;-45
2021/06/25 08:42:02;;;;;;;14.27;12.03;;;20.60;98.50;;;;;;5048903;28;20222;-41
2021/06/25 08:44:32;;;;;;;13.97;11.30;;;20.70;98.50;;;;;;5048438;28;20247;-44
2021/06/25 08:46:57;;;;;;;17.17;13.70;;;20.70;99.20;;;;;;5047633;28;20413;-43
2021/06/25 08:49:26;;;;;;;13.93;12.53;;;20.80;98.70;;;;;;5048091;28;20427;-42
2021/06/25 08:51:52;;;;;;;15.93;13.37;;;20.90;99.00;;;;;;5048545;28;20217;-43
2021/06/25 08:54:18;;;;;;;15.90;14.20;;;20.90;98.50;;;;;;5043544;28;20449;-43
2021/06/25 08:56:43;;;;;;;14.80;13.20;;;20.80;98.90;;;;;;5048682;28;20213;-47
2021/06/25 08:59:09;;;;;;;15.20;13.63;;;20.80;99.50;;;;;;5047738;28;20189;-41
2021/06/25 09:01:37;;;;;;;17.53;14.73;;;20.80;99.10;;;;;;5048634;28;20190;-43
2021/06/25 09:04:04;;;;;;;15.93;14.33;;;20.90;99.10;;;;;;5046780;28;20185;-45
2021/06/25 09:06:33;;;;;;;16.67;14.80;;;20.90;99.30;;;;;;5048386;28;20416;-44
2021/06/25 09:09:11;;;;;;;15.73;14.03;;;20.90;98.90;;;;;;5044366;28;20453;-44
2021/06/25 09:11:40;;;;;;;13.90;12.53;;;20.90;98.70;;;;;;5045675;28;20494;-41
2021/06/25 09:14:06;;;;;;;16.70;14.10;;;21.00;99.00;;;;;;5047817;28;20798;-45
2021/06/25 09:16:36;;;;;;;16.20;14.53;;;21.10;98.70;;;;;;5048170;28;20819;-46
2021/06/25 09:19:08;;;;;;;14.77;13.37;;;21.10;98.60;;;;;;5026724;28;20482;-46
2021/06/25 09:21:43;;;;;;;15.70;14.10;;;21.10;98.90;;;;;;5041912;28;20518;-41
2021/06/25 09:24:28;;;;;;;14.67;13.17;;;21.10;99.10;;;;;;5042892;28;20858;-43
2021/06/25 09:27:16;;;;;;;15.10;13.57;;;21.20;99.00;;;;;;5046081;28;20424;-40
2021/06/25 09:29:44;;;;;;;18.07;14.07;;;21.40;98.30;;;;;;5047939;28;20427;-43
2021/06/25 09:32:11;;;;;;;16.33;14.07;;;21.60;98.80;;;;;;5048052;28;20517;-44
2021/06/25 09:34:41;;;;;;;18.17;14.67;;;21.80;98.40;;;;;;5046361;28;20424;-42
2021/06/25 09:37:13;;;;;;;14.67;13.23;;;21.80;97.90;;;;;;5048093;28;20424;-43
2021/06/25 09:39:42;;;;;;;14.20;12.70;;;21.70;97.50;;;;;;5041845;28;20441;-43
2021/06/25 09:42:21;;;;;;;16.47;13.20;;;21.70;97.50;;;;;;5042050;28;20849;-42
2021/06/25 09:45:03;;;;;;;15.50;14.00;;;21.60;98.10;;;;;;5045735;28;20519;-42
2021/06/25 09:47:30;;;;;;;15.57;13.97;;;21.60;98.00;;;;;;5047721;28;20447;-41
2021/06/25 09:50:12;;;;;;;16.97;13.43;;;21.60;98.10;;;;;;5047467;28;20424;-43
2021/06/25 09:52:50;;;;;;;15.77;13.10;;;21.60;98.80;;;;;;5047423;28;20421;-40
2021/06/25 09:55:21;;;;;;;14.47;13.00;;;21.70;98.10;;;;;;5038748;28;20798;-43
2021/06/25 09:58:24;;;;;;;14.20;12.77;;;21.70;97.40;;;;;;5046135;28;20427;-44
2021/06/25 10:03:49;;;;;;;13.63;12.33;;;21.90;98.00;;;;;;5046882;28;20416;-42
2021/06/25 10:06:20;;;;;;;16.23;14.40;;;21.90;97.70;;;;;;5046049;28;20482;-45
2021/06/25 10:08:46;;;;;;;13.77;12.10;;;21.90;98.40;;;;;;5046216;28;21008;-46
2021/06/25 10:11:14;;;;;;;13.80;12.50;;;21.90;97.70;;;;;;5038089;28;20530;-45
2021/06/25 10:13:41;;;;;;;13.67;12.27;;;21.90;97.50;;;;;;5046416;28;20538;-43
2021/06/25 10:16:09;;;;;;;14.57;12.33;;;21.90;98.00;;;;;;5047089;28;20447;-42
2021/06/25 10:18:38;;;;;;;14.03;12.63;;;21.90;98.50;;;;;;5047195;28;20428;-46
2021/06/25 10:21:06;;;;;;;13.17;11.57;;;21.80;98.20;;;;;;5047237;28;20455;-43
2021/06/25 10:23:34;;;;;;;14.73;12.77;;;21.80;98.90;;;;;;5045143;28;20415;-43
2021/06/25 10:26:10;;;;;;;15.60;14.10;;;21.90;98.70;;;;;;5038995;28;20435;-43
2021/06/25 10:28:37;;;;;;;16.67;13.33;;;21.90;97.70;;;;;;5046840;28;20760;-44
2021/06/25 10:31:04;;;;;;;17.33;15.63;;;22.00;98.20;;;;;;5047012;28;20495;-42
2021/06/25 10:33:31;;;;;;;16.63;14.67;;;22.00;97.90;;;;;;5045638;28;20425;-43
2021/06/25 10:35:59;;;;;;;16.70;14.97;;;22.00;98.80;;;;;;5046710;28;20416;-47
2021/06/25 10:38:28;;;;;;;17.33;15.63;;;22.00;98.50;;;;;;5047044;28;20770;-44
2021/06/25 10:41:03;;;;;;;16.37;14.43;;;21.90;98.10;;;;;;5037673;28;20440;-43
2021/06/25 10:43:40;;;;;;;17.30;15.57;;;21.70;97.90;;;;;;5042390;28;20993;-41
2021/06/25 10:46:05;;;;;;;16.50;14.80;;;21.60;98.20;;;;;;5045199;28;20905;-46
2021/06/25 10:48:39;;;;;;;16.40;14.73;;;21.50;98.20;;;;;;5046521;28;20436;-44
2021/06/25 10:51:22;;;;;;;19.20;17.20;;;21.40;98.80;;;;;;5046406;28;20704;-43
2021/06/25 10:54:09;;;;;;;16.50;14.73;;;21.30;98.30;;;;;;5046316;28;20454;-42
2021/06/25 10:56:37;;;;;;;17.40;14.10;;;21.20;99.20;;;;;;5036942;28;20428;-43
2021/06/25 10:59:28;;;;;;;16.77;15.17;;;21.30;99.10;;;;;;5045990;28;20511;-45
2021/06/25 11:02:02;;;;;;;16.03;14.40;;;21.30;99.40;;;;;;5044624;28;20795;-44
2021/06/25 11:04:30;;;;;;;15.63;14.20;;;21.30;98.70;;;;;;5045229;28;20424;-44
2021/06/25 11:06:58;;;;;;;16.60;14.90;;;21.40;99.40;;;;;;5045693;28;20424;-44
2021/06/25 11:09:28;;;;;;;15.07;13.57;;;21.50;99.30;;;;;;5045161;28;20795;-41
2021/06/25 11:12:26;;;;;;;15.90;14.50;;;21.50;99.30;;;;;;5029238;28;20539;-45
2021/06/25 11:15:12;;;;;;;17.10;15.07;;;21.60;99.90;;;;;;5044219;28;20898;-46
2021/06/25 11:17:52;;;;;;;14.50;13.03;;;21.70;98.50;;;;;;5027691;28;20412;-46
2021/06/25 11:20:22;;;;;;;15.50;13.97;;;21.80;98.40;;;;;;5045836;28;20435;-40
2021/06/25 11:23:05;;;;;;;16.13;12.77;;;21.80;97.70;;;;;;5045054;28;20996;-45
2021/06/25 11:25:56;;;;;;;15.93;14.37;;;22.00;98.40;;;;;;5038911;28;20445;-43
2021/06/25 11:28:33;;;;;;;14.20;12.80;;;22.20;97.10;;;;;;5042122;28;20469;-41
2021/06/25 11:31:17;;;;;;;13.60;12.20;;;22.20;96.90;;;;;;5043585;28;20579;-46
2021/06/25 11:33:57;;;;;;;14.20;12.80;;;22.30;97.30;;;;;;5043038;28;20922;-42
2021/06/25 11:36:51;;;;;;;13.83;12.43;;;22.30;97.50;;;;;;5041913;28;20416;-45
2021/06/25 11:39:17;;;;;;;12.90;11.70;;;22.30;96.10;;;;;;5044915;28;20419;-41
2021/06/25 11:41:47;;;;;;;13.70;12.40;;;22.30;96.00;;;;;;5040030;28;20436;-43
2021/06/25 11:44:23;;;;;;;15.20;11.97;;;22.30;95.80;;;;;;5043975;28;20193;-45
2021/06/25 11:47:27;;;;;;;14.40;12.03;;;22.40;96.70;;;;;;5055604;28;20776;-41
2021/06/25 11:50:03;;;;;;;13.07;11.00;;;22.50;96.20;;;;;;5044365;28;20424;-47
2021/06/25 11:52:31;;;;;;;18.30;13.83;;;22.60;95.80;;;;;;5049150;28;20518;-44
2021/06/25 11:55:03;;;;;;;13.33;12.03;;;22.50;94.30;;;;;;5054667;28;20513;-44
2021/06/25 11:57:32;;;;;;;13.03;11.83;;;22.40;95.30;;;;;;5044680;28;20420;-44
2021/06/25 12:00:00;;;;;;;13.00;11.63;;;22.50;96.20;;;;;;5038442;28;20817;-43
2021/06/25 12:02:26;;;;;;;14.03;12.63;;;22.50;95.70;;;;;;5047743;28;20424;-42
2021/06/25 12:04:53;;;;;;;13.17;11.90;;;22.60;95.70;;;;;;5048952;28;20831;-43
2021/06/25 12:07:19;;;;;;;15.70;14.20;;;22.80;96.90;;;;;;5049048;28;20867;-43
2021/06/25 12:09:52;;;;;;;16.47;13.20;;;23.00;95.90;;;;;;5057616;28;20439;-45
2021/06/25 12:12:38;;;;;;;16.00;13.40;;;22.90;95.00;;;;;;5038121;28;20506;-43
2021/06/25 12:15:07;;;;;;;14.40;13.00;;;22.80;95.30;;;;;;5041787;28;20423;-43
2021/06/25 12:17:47;;;;;;;17.57;14.73;;;22.80;95.80;;;;;;5049175;28;20420;-41
2021/06/25 12:20:21;;;;;;;13.93;12.53;;;23.00;96.30;;;;;;5048884;28;20985;-44
2021/06/25 12:22:57;;;;;;;15.33;13.77;;;23.10;96.90;;;;;;5046900;28;20789;-43
2021/06/25 12:25:36;;;;;;;13.07;11.57;;;23.10;94.30;;;;;;5044846;28;20861;-43
2021/06/25 12:28:16;;;;;;;26.10;14.23;;;23.10;94.50;;;;;;5042026;28;20448;-43
2021/06/25 12:30:47;;;;;;;14.00;12.70;;;23.10;95.00;;;;;;5047139;28;20459;-41
2021/06/25 12:33:14;;;;;;;14.47;13.07;;;23.10;94.90;;;;;;5047759;28;20491;-43
2021/06/25 12:35:44;;;;;;;14.00;12.60;;;23.20;94.90;;;;;;5048986;28;20455;-44
2021/06/25 12:38:14;;;;;;;14.90;13.40;;;23.20;94.60;;;;;;5049178;28;20616;-44
2021/06/25 12:40:46;;;;;;;14.37;12.87;;;23.10;94.20;;;;;;5045678;28;20971;-43
2021/06/25 12:43:18;;;;;;;15.37;13.67;;;23.10;94.70;;;;;;5043924;28;20813;-43
2021/06/25 12:45:55;;;;;;;16.60;13.60;;;23.00;95.00;;;;;;5049365;28;20452;-45